createdAt,value
2022-08-12T00:00:43.239Z,21.23
2022-08-12T00:03:03.341Z,21.25
2022-08-12T00:05:23.959Z,21.26
2022-08-12T00:07:43.938Z,21.24
2022-08-12T00:10:04.064Z,21.21
2022-08-12T00:12:23.976Z,21.19
2022-08-12T00:14:44.044Z,21.20
2022-08-12T00:17:03.907Z,21.14
2022-08-12T00:19:24.103Z,21.13
2022-08-12T00:21:44.270Z,21.17
2022-08-12T00:24:06.654Z,21.17
2022-08-12T00:26:29.315Z,21.14
2022-08-12T00:28:49.278Z,21.13
2022-08-12T00:31:09.296Z,21.10
2022-08-12T00:33:33.988Z,21.08
2022-08-12T00:35:58.606Z,21.03
2022-08-12T00:38:19.376Z,21.01
2022-08-12T00:40:39.298Z,21.00
2022-08-12T00:42:41.002Z,20.97
2022-08-12T00:44:43.251Z,21.04
2022-08-12T00:46:44.687Z,21.06
2022-08-12T00:48:46.214Z,21.08
2022-08-12T00:50:47.532Z,21.08
2022-08-12T00:52:49.667Z,21.09
2022-08-12T00:54:51.011Z,21.04
2022-08-12T00:56:52.313Z,21.05
2022-08-12T00:58:53.655Z,21.07
2022-08-12T01:00:54.984Z,21.05
2022-08-12T01:02:58.681Z,21.04
2022-08-12T01:05:19.083Z,20.94
2022-08-12T01:07:38.958Z,20.86
2022-08-12T01:09:59.037Z,20.87
2022-08-12T01:12:00.342Z,20.95
2022-08-12T01:14:01.708Z,20.96
2022-08-12T01:16:03.019Z,20.90
2022-08-12T01:18:05.632Z,20.87
2022-08-12T01:20:07.782Z,20.86
2022-08-12T01:22:09.371Z,20.89
2022-08-12T01:24:29.705Z,20.88
2022-08-12T01:26:32.115Z,20.94
2022-08-12T01:28:33.421Z,20.95
2022-08-12T01:30:34.746Z,20.85
2022-08-12T01:32:37.576Z,19.95
2022-08-12T01:34:39.399Z,20.86
2022-08-12T01:36:41.237Z,20.89
2022-08-12T01:38:43.876Z,20.89
2022-08-12T01:40:47.121Z,20.91
2022-08-12T01:42:48.619Z,20.90
2022-08-12T01:44:50.043Z,20.91
2022-08-12T01:46:51.379Z,20.91
2022-08-12T01:48:53.529Z,20.90
2022-08-12T01:50:54.898Z,20.86
2022-08-12T01:53:01.912Z,20.84
2022-08-12T01:55:05.271Z,20.87
2022-08-12T01:57:06.601Z,20.91
2022-08-12T01:59:26.495Z,20.91
2022-08-12T02:01:27.888Z,20.91
2022-08-12T02:03:29.955Z,20.90
2022-08-12T02:05:50.094Z,20.86
2022-08-12T02:08:10.015Z,20.88
2022-08-12T02:10:50.133Z,20.87
2022-08-12T02:12:51.176Z,20.86
2022-08-12T02:14:52.589Z,20.85
2022-08-12T02:16:53.888Z,20.83
2022-08-12T02:18:55.199Z,20.83
2022-08-12T02:20:57.003Z,20.76
2022-08-12T02:22:58.661Z,20.75
2022-08-12T02:24:59.993Z,20.72
2022-08-12T02:27:01.894Z,20.72
2022-08-12T02:29:03.302Z,20.73
2022-08-12T02:31:04.916Z,20.71
2022-08-12T02:33:06.219Z,20.71
2022-08-12T02:35:07.516Z,20.70
2022-08-12T02:37:09.718Z,20.70
2022-08-12T02:39:11.105Z,20.70
2022-08-12T02:41:12.459Z,20.81
2022-08-12T02:43:13.779Z,20.74
2022-08-12T02:45:15.154Z,20.62
2022-08-12T02:47:58.584Z,20.54
2022-08-12T02:49:38.623Z,20.45
2022-08-12T02:51:40.201Z,20.40
2022-08-12T02:53:41.543Z,20.35
2022-08-12T02:55:44.461Z,20.56
2022-08-12T02:57:45.795Z,20.42
2022-08-12T02:59:48.755Z,20.24
2022-08-12T03:01:50.054Z,20.20
2022-08-12T03:03:52.864Z,20.02
2022-08-12T03:05:54.270Z,19.82
2022-08-12T03:07:59.639Z,20.01
2022-08-12T03:10:04.226Z,20.11
2022-08-12T03:12:09.525Z,20.11
2022-08-12T03:14:18.051Z,20.09
2022-08-12T03:16:20.740Z,20.03
2022-08-12T03:18:24.588Z,20.00
2022-08-12T03:20:29.023Z,20.03
2022-08-12T03:22:31.541Z,20.00
2022-08-12T03:24:33.041Z,19.98
2022-08-12T03:26:35.674Z,19.91
2022-08-12T03:28:54.156Z,19.96
2022-08-12T03:30:56.899Z,20.00
2022-08-12T03:32:58.278Z,20.02
2022-08-12T03:34:59.581Z,20.00
2022-08-12T03:37:00.994Z,19.97
2022-08-12T03:39:17.779Z,19.96
2022-08-12T03:41:37.605Z,19.93
2022-08-12T03:43:57.703Z,19.89
2022-08-12T03:46:17.510Z,18.35
2022-08-12T03:48:37.281Z,19.89
2022-08-12T03:50:57.152Z,19.83
2022-08-12T03:53:17.098Z,19.81
2022-08-12T03:55:36.999Z,19.81
2022-08-12T03:57:56.902Z,19.78
2022-08-12T04:00:23.986Z,19.78
2022-08-12T04:02:26.596Z,19.76
2022-08-12T04:04:28.634Z,19.76
2022-08-12T04:06:35.270Z,19.77
2022-08-12T04:08:37.305Z,19.75
2022-08-12T04:10:57.171Z,19.77
2022-08-12T04:13:19.858Z,19.77
2022-08-12T04:15:23.143Z,19.45
2022-08-12T04:17:24.688Z,19.76
2022-08-12T04:19:26.437Z,19.74
2022-08-12T04:21:28.042Z,19.73
2022-08-12T04:23:29.407Z,19.74
2022-08-12T04:25:30.708Z,19.74
2022-08-12T04:27:32.550Z,19.75
2022-08-12T04:30:32.859Z,19.73
2022-08-12T04:31:56.030Z,19.73
2022-08-12T04:33:57.964Z,19.73
2022-08-12T04:35:59.279Z,19.71
2022-08-12T04:38:01.162Z,19.73
2022-08-12T04:40:02.550Z,19.72
2022-08-12T04:42:03.860Z,19.71
2022-08-12T04:44:05.159Z,19.69
2022-08-12T04:46:07.333Z,19.73
2022-08-12T04:48:08.785Z,19.71
2022-08-12T04:50:27.262Z,19.72
2022-08-12T04:52:34.840Z,19.70
2022-08-12T04:54:36.388Z,19.73
2022-08-12T04:56:37.738Z,19.72
2022-08-12T04:58:39.108Z,19.72
2022-08-12T05:00:40.487Z,19.73
2022-08-12T05:02:42.157Z,19.74
2022-08-12T05:04:43.987Z,19.75
2022-08-12T05:06:45.306Z,19.76
2022-08-12T05:08:46.690Z,19.75
2022-08-12T05:10:48.350Z,19.75
2022-08-12T05:12:49.655Z,19.76
2022-08-12T05:14:50.967Z,19.76
2022-08-12T05:16:53.179Z,19.75
2022-08-12T05:18:54.524Z,19.75
2022-08-12T05:20:59.047Z,19.76
2022-08-12T05:23:07.448Z,19.76
2022-08-12T05:25:13.098Z,19.79
2022-08-12T05:27:14.471Z,19.83
2022-08-12T05:30:07.745Z,19.85
2022-08-12T05:31:47.670Z,19.88
2022-08-12T05:33:49.776Z,19.87
2022-08-12T05:35:51.122Z,19.89
2022-08-12T05:38:12.438Z,19.89
2022-08-12T05:40:14.087Z,19.93
2022-08-12T05:42:15.387Z,19.93
2022-08-12T05:44:17.469Z,19.97
2022-08-12T05:46:18.856Z,20.01
2022-08-12T05:48:20.431Z,20.02
2022-08-12T05:50:21.728Z,20.03
2022-08-12T05:52:23.041Z,20.02
2022-08-12T05:54:47.384Z,20.07
2022-08-12T05:56:45.760Z,20.08
2022-08-12T05:58:47.346Z,20.10
2022-08-12T06:00:49.108Z,20.12
2022-08-12T06:02:50.467Z,20.14
2022-08-12T06:04:51.766Z,20.16
2022-08-12T06:06:53.587Z,20.16
2022-08-12T06:08:55.205Z,20.19
2022-08-12T06:10:57.188Z,18.51
2022-08-12T06:12:58.696Z,20.16
2022-08-12T06:15:00.146Z,20.16
2022-08-12T06:17:01.542Z,20.18
2022-08-12T06:19:02.844Z,20.17
2022-08-12T06:21:04.195Z,20.19
2022-08-12T06:23:05.499Z,20.19
2022-08-12T06:25:06.835Z,20.21
2022-08-12T06:27:08.495Z,20.19
2022-08-12T06:29:09.816Z,20.20
2022-08-12T06:31:25.899Z,20.22
2022-08-12T06:33:55.913Z,20.23
2022-08-12T06:35:50.287Z,20.22
2022-08-12T06:37:56.999Z,20.23
2022-08-12T06:40:03.114Z,20.23
2022-08-12T06:42:32.741Z,20.25
2022-08-12T06:44:34.743Z,20.26
2022-08-12T06:46:39.405Z,20.29
2022-08-12T06:48:43.539Z,20.30
2022-08-12T06:50:46.078Z,20.31
2022-08-12T06:52:47.399Z,20.32
2022-08-12T06:54:48.748Z,20.31
2022-08-12T06:58:08.248Z,20.34
2022-08-12T06:59:14.676Z,20.37
2022-08-12T07:01:17.545Z,20.38
2022-08-12T07:03:27.568Z,20.42
2022-08-12T07:05:28.955Z,20.46
2022-08-12T07:07:30.279Z,20.51
2022-08-12T07:10:06.032Z,20.58
2022-08-12T07:11:52.937Z,20.66
2022-08-12T07:14:12.631Z,20.70
2022-08-12T07:16:14.707Z,20.74
2022-08-12T07:18:17.056Z,20.76
2022-08-12T07:20:42.547Z,20.75
2022-08-12T07:22:40.000Z,20.75
2022-08-12T07:24:42.273Z,20.78
2022-08-12T07:26:44.748Z,20.82
2022-08-12T07:28:46.108Z,20.82
2022-08-12T07:30:49.185Z,20.81
2022-08-12T07:32:51.722Z,20.82
2022-08-12T07:34:54.725Z,20.82
2022-08-12T07:36:56.090Z,20.84
2022-08-12T07:38:57.393Z,20.86
2022-08-12T07:40:59.915Z,20.86
2022-08-12T07:43:01.223Z,20.88
2022-08-12T07:45:04.709Z,20.91
2022-08-12T07:47:06.972Z,20.98
2022-08-12T07:49:08.305Z,21.04
2022-08-12T07:51:09.648Z,21.11
2022-08-12T07:53:10.958Z,21.17
2022-08-12T07:55:12.302Z,21.26
2022-08-12T07:57:15.341Z,21.31
2022-08-12T07:59:16.681Z,21.36
2022-08-12T08:01:18.535Z,21.40
2022-08-12T08:03:19.891Z,21.43
2022-08-12T08:05:21.206Z,21.48
2022-08-12T08:07:22.569Z,21.50
2022-08-12T08:09:23.927Z,21.54
2022-08-12T08:11:43.919Z,21.59
2022-08-12T08:13:45.226Z,21.63
2022-08-12T08:16:02.469Z,21.64
2022-08-12T08:18:04.941Z,21.65
2022-08-12T08:20:06.485Z,21.59
2022-08-12T08:22:10.199Z,21.51
2022-08-12T08:24:14.651Z,21.45
2022-08-12T08:26:16.099Z,21.41
2022-08-12T08:28:17.513Z,21.36
2022-08-12T08:30:18.815Z,21.34
2022-08-12T08:32:20.126Z,21.32
2022-08-12T08:34:47.388Z,21.32
2022-08-12T08:36:43.675Z,21.30
2022-08-12T08:38:53.136Z,21.30
2022-08-12T08:42:15.604Z,21.31
2022-08-12T08:43:44.603Z,21.42
2022-08-12T08:45:48.308Z,21.49
2022-08-12T08:47:49.704Z,21.57
2022-08-12T08:49:51.040Z,21.63
2022-08-12T08:51:52.334Z,21.69
2022-08-12T08:53:53.742Z,21.73
2022-08-12T08:56:04.651Z,21.76
2022-08-12T08:58:06.990Z,21.78
2022-08-12T09:00:08.319Z,21.80
2022-08-12T09:02:10.577Z,21.78
2022-08-12T09:05:11.778Z,21.78
2022-08-12T09:06:37.115Z,21.83
2022-08-12T09:08:39.480Z,21.85
2022-08-12T09:10:45.385Z,21.85
2022-08-12T09:13:06.314Z,21.88
2022-08-12T09:15:19.012Z,21.89
2022-08-12T09:17:22.249Z,21.90
2022-08-12T09:21:54.828Z,21.95
2022-08-12T09:24:06.124Z,21.95
2022-08-12T09:26:09.607Z,21.96
2022-08-12T09:28:11.035Z,21.96
2022-08-12T09:30:18.219Z,21.98
2022-08-12T09:33:04.906Z,22.02
2022-08-12T09:35:03.796Z,22.02
2022-08-12T09:37:19.353Z,22.04
2022-08-12T09:40:04.553Z,22.04
2022-08-12T09:42:33.120Z,22.06
2022-08-12T09:44:39.281Z,22.10
2022-08-12T09:46:41.952Z,22.14
2022-08-12T09:48:56.676Z,22.11
2022-08-12T09:51:00.053Z,22.13
2022-08-12T09:53:04.099Z,22.18
2022-08-12T09:56:06.954Z,22.16
2022-08-12T09:58:46.418Z,22.16
2022-08-12T10:00:28.138Z,22.18
2022-08-12T10:02:45.235Z,22.20
2022-08-12T10:04:51.961Z,22.16
2022-08-12T10:06:55.496Z,22.12
2022-08-12T10:08:59.004Z,22.06
2022-08-12T10:11:20.656Z,22.03
2022-08-12T10:13:41.955Z,22.08
2022-08-12T10:16:01.619Z,22.09
2022-08-12T10:18:07.845Z,22.12
2022-08-12T10:20:09.938Z,22.05
2022-08-12T10:22:17.367Z,21.99
2022-08-12T10:24:36.812Z,22.00
2022-08-12T10:26:56.989Z,22.05
2022-08-12T10:30:40.962Z,22.17
2022-08-12T10:32:01.648Z,22.22
2022-08-12T10:34:06.665Z,22.17
2022-08-12T10:36:15.725Z,22.07
2022-08-12T10:38:39.284Z,22.10
2022-08-12T10:40:59.486Z,22.17
2022-08-12T10:43:19.433Z,22.17
2022-08-12T10:45:20.743Z,22.13
2022-08-12T10:48:00.967Z,22.06
2022-08-12T10:50:03.144Z,22.02
2022-08-12T10:52:32.850Z,22.00
2022-08-12T10:54:29.216Z,21.97
2022-08-12T10:56:34.445Z,21.94
2022-08-12T10:58:36.677Z,21.94
2022-08-12T11:00:54.979Z,22.00
2022-08-12T11:04:24.605Z,22.10
2022-08-12T11:07:06.491Z,22.12
2022-08-12T11:08:37.282Z,22.22
2022-08-12T11:10:03.252Z,22.28
2022-08-12T11:12:35.671Z,22.32
2022-08-12T11:14:49.571Z,22.28
2022-08-12T11:17:34.790Z,22.29
2022-08-12T11:19:22.460Z,22.28
2022-08-12T11:21:56.960Z,22.31
2022-08-12T11:23:45.281Z,22.34
2022-08-12T11:25:58.298Z,22.38
2022-08-12T11:28:01.054Z,22.41
2022-08-12T11:30:06.844Z,22.46
2022-08-12T11:32:10.007Z,22.47
2022-08-12T11:34:51.600Z,22.47
2022-08-12T11:36:39.413Z,22.51
2022-08-12T11:38:42.049Z,22.51
2022-08-12T11:40:44.210Z,22.48
2022-08-12T11:42:47.263Z,22.43
2022-08-12T11:44:48.663Z,22.49
2022-08-12T11:46:51.454Z,22.37
2022-08-12T11:48:54.442Z,22.36
2022-08-12T11:50:55.777Z,22.36
2022-08-12T11:52:57.339Z,22.40
2022-08-12T11:54:58.738Z,22.46
2022-08-12T11:57:02.456Z,22.52
2022-08-12T12:02:02.376Z,22.66
2022-08-12T12:03:47.012Z,22.68
2022-08-12T12:05:48.326Z,22.69
2022-08-12T12:08:38.197Z,22.68
2022-08-12T12:10:11.182Z,22.67
2022-08-12T12:12:12.500Z,22.68
2022-08-12T12:14:13.815Z,22.68
2022-08-12T12:16:17.147Z,22.64
2022-08-12T12:18:18.450Z,22.70
2022-08-12T12:20:25.994Z,22.73
2022-08-12T12:22:36.469Z,22.82
2022-08-12T12:24:37.833Z,22.89
2022-08-12T12:26:39.163Z,22.89
2022-08-12T12:28:54.373Z,22.89
2022-08-12T12:30:56.291Z,22.88
2022-08-12T12:32:57.801Z,22.73
2022-08-12T12:35:14.657Z,22.70
2022-08-12T12:37:58.837Z,22.68
2022-08-12T12:39:55.378Z,22.58
2022-08-12T12:42:43.207Z,22.52
2022-08-12T12:44:25.718Z,22.68
2022-08-12T12:46:31.732Z,22.76
2022-08-12T12:48:33.087Z,22.72
2022-08-12T12:50:45.594Z,22.79
2022-08-12T12:52:53.317Z,22.87
2022-08-12T12:54:55.800Z,22.91
2022-08-12T12:56:57.094Z,22.93
2022-08-12T12:58:59.583Z,22.97
2022-08-12T13:01:04.891Z,23.41
2022-08-12T13:03:23.312Z,24.19
2022-08-12T13:05:27.800Z,24.70
2022-08-12T13:07:54.286Z,24.86
2022-08-12T13:09:50.846Z,25.05
2022-08-12T13:11:55.225Z,24.45
2022-08-12T13:14:07.413Z,23.92
2022-08-12T13:16:18.587Z,23.69
2022-08-12T13:18:28.625Z,24.58
2022-08-12T13:20:38.053Z,24.88
2022-08-12T13:22:45.182Z,25.19
2022-08-12T13:24:51.845Z,25.03
2022-08-12T13:26:56.148Z,24.56
2022-08-12T13:28:57.896Z,23.83
2022-08-12T13:30:59.501Z,23.86
2022-08-12T13:33:00.835Z,23.88
2022-08-12T13:35:04.483Z,23.92
2022-08-12T13:37:26.645Z,23.84
2022-08-12T13:39:45.511Z,23.88
2022-08-12T13:41:46.857Z,23.89
2022-08-12T13:43:50.942Z,23.88
2022-08-12T13:45:52.239Z,22.07
2022-08-12T13:47:56.773Z,23.72
2022-08-12T13:49:59.829Z,23.65
2022-08-12T13:52:01.237Z,23.62
2022-08-12T13:54:09.537Z,23.60
2022-08-12T13:56:14.541Z,23.57
2022-08-12T13:58:16.886Z,23.53
2022-08-12T14:00:19.963Z,23.49
2022-08-12T14:02:36.219Z,23.46
2022-08-12T14:04:39.430Z,23.43
2022-08-12T14:06:40.806Z,23.45
2022-08-12T14:08:42.818Z,23.42
2022-08-12T14:10:51.021Z,23.42
2022-08-12T14:12:54.213Z,23.39
2022-08-12T14:14:57.369Z,23.37
2022-08-12T14:17:05.493Z,23.29
2022-08-12T14:19:10.446Z,23.31
2022-08-12T14:21:23.406Z,23.32
2022-08-12T14:24:04.430Z,23.24
2022-08-12T14:25:48.630Z,23.17
2022-08-12T14:28:03.531Z,23.07
2022-08-12T14:30:15.227Z,23.13
2022-08-12T14:32:18.651Z,23.18
2022-08-12T14:34:20.549Z,23.22
2022-08-12T14:36:29.606Z,23.25
2022-08-12T14:38:30.910Z,23.20
2022-08-12T14:40:32.337Z,23.06
2022-08-12T14:42:33.839Z,23.00
2022-08-12T14:44:59.405Z,23.00
2022-08-12T14:46:59.337Z,22.91
2022-08-12T14:50:00.635Z,22.88
2022-08-12T14:52:55.823Z,22.98
2022-08-12T14:54:55.817Z,23.01
2022-08-12T14:58:27.026Z,23.02
2022-08-12T15:00:52.511Z,23.02
2022-08-12T15:02:54.075Z,23.03
2022-08-12T15:05:03.485Z,23.05
2022-08-12T15:07:05.353Z,23.06
2022-08-12T15:09:07.806Z,23.06
2022-08-12T15:11:14.242Z,23.06
2022-08-12T15:13:17.325Z,23.06
2022-08-12T15:15:19.961Z,23.04
2022-08-12T15:17:37.269Z,23.02
2022-08-12T15:20:11.996Z,22.97
2022-08-12T15:22:35.715Z,22.98
2022-08-12T15:24:22.227Z,22.97
2022-08-12T15:26:36.647Z,22.94
2022-08-12T15:28:41.397Z,22.87
2022-08-12T15:30:55.754Z,22.84
2022-08-12T15:32:58.273Z,22.87
2022-08-12T15:35:03.407Z,22.87
2022-08-12T15:37:13.282Z,22.85
2022-08-12T15:39:19.686Z,22.83
2022-08-12T15:41:22.356Z,22.83
2022-08-12T15:43:27.313Z,22.83
2022-08-12T15:45:48.474Z,22.84
2022-08-12T15:47:53.135Z,22.83
2022-08-12T15:50:06.386Z,22.83
2022-08-12T15:52:07.688Z,22.81
2022-08-12T15:54:30.705Z,22.84
2022-08-12T15:56:37.265Z,22.84
2022-08-12T15:58:41.197Z,22.80
2022-08-12T16:00:43.064Z,22.81
2022-08-12T16:02:49.506Z,22.83
2022-08-12T16:04:52.787Z,22.81
2022-08-12T16:07:06.050Z,22.79
2022-08-12T16:09:10.779Z,22.79
2022-08-12T16:11:18.936Z,22.79
2022-08-12T16:13:25.288Z,22.76
2022-08-12T16:15:35.593Z,22.73
2022-08-12T16:17:41.358Z,22.70
2022-08-12T16:20:04.339Z,22.71
2022-08-12T16:22:07.174Z,22.70
2022-08-12T16:24:12.847Z,22.66
2022-08-12T16:26:20.354Z,22.65
2022-08-12T16:28:29.143Z,22.66
2022-08-12T16:30:32.820Z,22.65
2022-08-12T16:32:35.916Z,22.64
2022-08-12T16:34:42.257Z,22.63
2022-08-12T16:37:00.077Z,22.57
2022-08-12T16:39:03.432Z,22.55
2022-08-12T16:41:05.159Z,22.53
2022-08-12T16:45:14.536Z,22.52
2022-08-12T16:47:16.765Z,22.53
2022-08-12T16:49:22.230Z,22.55
2022-08-12T16:51:26.527Z,22.55
2022-08-12T16:53:43.245Z,22.53
2022-08-12T16:55:47.471Z,22.51
2022-08-12T16:57:56.587Z,22.51
2022-08-12T16:59:57.983Z,22.49
2022-08-12T17:02:00.545Z,22.50
2022-08-12T17:04:10.845Z,22.50
2022-08-12T17:06:12.788Z,22.50
2022-08-12T17:08:29.165Z,22.51
2022-08-12T17:10:36.788Z,22.52
2022-08-12T17:12:38.498Z,22.48
2022-08-12T17:14:40.486Z,22.47
2022-08-12T17:16:45.645Z,22.47
2022-08-12T17:18:59.376Z,22.45
2022-08-12T17:21:07.839Z,22.44
2022-08-12T17:23:14.035Z,22.43
2022-08-12T17:25:15.351Z,22.42
2022-08-12T17:27:16.780Z,22.40
2022-08-12T17:29:24.355Z,22.41
2022-08-12T17:31:59.784Z,22.40
2022-08-12T17:34:03.895Z,22.39
2022-08-12T17:36:07.224Z,22.37
2022-08-12T17:38:13.720Z,22.37
2022-08-12T17:40:34.554Z,22.37
2022-08-12T17:42:38.344Z,22.37
2022-08-12T17:44:43.579Z,22.35
2022-08-12T17:46:46.107Z,22.35
2022-08-12T17:48:57.900Z,22.35
2022-08-12T17:51:01.154Z,22.35
2022-08-12T17:53:03.591Z,22.34
2022-08-12T17:55:05.170Z,22.33
2022-08-12T17:57:26.599Z,22.32
2022-08-12T17:59:48.889Z,22.30
2022-08-12T18:01:50.090Z,22.29
2022-08-12T18:04:05.568Z,22.27
2022-08-12T18:06:15.545Z,22.25
2022-08-12T18:08:17.703Z,22.23
2022-08-12T18:10:42.680Z,22.23
2022-08-12T18:12:52.344Z,22.20
2022-08-12T18:14:56.466Z,22.20
2022-08-12T18:17:01.366Z,22.18
2022-08-12T18:19:02.695Z,22.18
2022-08-12T18:21:08.580Z,22.16
2022-08-12T18:23:10.206Z,22.16
2022-08-12T18:26:14.896Z,22.14
2022-08-12T18:27:45.742Z,22.13
2022-08-12T18:29:54.446Z,22.10
2022-08-12T18:31:59.183Z,22.08
2022-08-12T18:34:03.216Z,22.08
2022-08-12T18:36:07.135Z,22.06
2022-08-12T18:38:16.564Z,22.03
2022-08-12T18:40:36.937Z,22.02
2022-08-12T18:42:39.128Z,22.00
2022-08-12T18:44:48.171Z,21.17
2022-08-12T18:46:54.327Z,21.96
2022-08-12T18:48:56.534Z,21.95
2022-08-12T18:51:00.251Z,21.94
2022-08-12T18:53:02.383Z,21.92
2022-08-12T18:55:06.119Z,21.91
2022-08-12T18:57:19.712Z,21.89
2022-08-12T18:59:59.842Z,21.87
2022-08-12T19:02:20.807Z,21.84
2022-08-12T19:04:15.926Z,21.83
2022-08-12T19:06:19.874Z,21.81
2022-08-12T19:08:29.868Z,21.78
2022-08-12T19:10:31.381Z,21.78
2022-08-12T19:12:57.197Z,21.76
2022-08-12T19:15:04.324Z,21.77
2022-08-12T19:17:06.322Z,21.75
2022-08-12T19:19:14.169Z,21.70
2022-08-12T19:21:20.478Z,21.69
2022-08-12T19:23:22.227Z,21.71
2022-08-12T19:25:24.007Z,21.70
2022-08-12T19:27:50.563Z,21.70
2022-08-12T19:30:06.182Z,21.69
2022-08-12T19:32:09.655Z,21.69
2022-08-12T19:34:47.151Z,21.68
2022-08-12T19:36:32.271Z,21.67
2022-08-12T19:38:33.670Z,21.65
2022-08-12T19:40:35.150Z,22.38
2022-08-12T19:42:42.750Z,22.99
2022-08-12T19:44:50.572Z,23.37
2022-08-12T19:46:53.379Z,23.39
2022-08-12T19:48:58.409Z,23.54
2022-08-12T19:51:22.671Z,23.52
2022-08-12T19:53:27.492Z,23.83
2022-08-12T19:55:29.158Z,23.77
2022-08-12T19:57:36.615Z,23.89
2022-08-12T20:00:03.759Z,23.79
2022-08-12T20:02:05.565Z,23.77
2022-08-12T20:04:08.148Z,23.63
2022-08-12T20:06:13.907Z,23.49
2022-08-12T20:08:27.862Z,23.51
2022-08-12T20:10:35.451Z,23.64
2022-08-12T20:12:53.776Z,23.72
2022-08-12T20:14:59.112Z,23.88
2022-08-12T20:17:08.303Z,23.98
2022-08-12T20:19:10.774Z,23.95
2022-08-12T20:21:15.004Z,23.52
2022-08-12T20:23:18.117Z,23.49
2022-08-12T20:25:28.216Z,23.76
2022-08-12T20:28:04.218Z,23.84
2022-08-12T20:30:03.736Z,23.82
2022-08-12T20:32:05.977Z,23.86
2022-08-12T20:34:12.305Z,23.84
2022-08-12T20:36:41.501Z,23.83
2022-08-12T20:38:39.784Z,23.46
2022-08-12T20:40:42.231Z,23.24
2022-08-12T20:42:50.538Z,23.26
2022-08-12T20:44:54.152Z,23.49
2022-08-12T20:47:18.649Z,23.66
2022-08-12T20:49:21.812Z,23.75
2022-08-12T20:51:23.151Z,23.78
2022-08-12T20:53:27.795Z,23.91
2022-08-12T20:55:56.870Z,23.91
2022-08-12T20:58:02.074Z,23.07
2022-08-12T21:00:06.419Z,23.93
2022-08-12T21:02:08.921Z,23.91
2022-08-12T21:04:28.994Z,23.93
2022-08-12T21:06:49.055Z,24.00
2022-08-12T21:08:50.354Z,24.00
2022-08-12T21:10:52.855Z,23.63
2022-08-12T21:13:00.163Z,23.42
2022-08-12T21:15:16.589Z,23.33
2022-08-12T21:17:23.903Z,23.18
2022-08-12T21:19:52.289Z,23.43
2022-08-12T21:21:58.787Z,23.58
2022-08-12T21:24:00.341Z,23.48
2022-08-12T21:26:03.628Z,23.92
2022-08-12T21:28:07.488Z,24.18
2022-08-12T21:30:11.268Z,24.33
2022-08-12T21:32:39.349Z,24.40
2022-08-12T21:34:36.951Z,24.37
2022-08-12T21:36:39.666Z,24.24
2022-08-12T21:38:41.532Z,24.16
2022-08-12T21:40:51.607Z,24.16
2022-08-12T21:42:53.700Z,24.11
2022-08-12T21:45:45.367Z,24.13
2022-08-12T21:47:22.315Z,24.27
2022-08-12T21:49:54.905Z,24.46
2022-08-12T21:51:50.429Z,24.54
2022-08-12T21:54:07.307Z,23.95
2022-08-12T21:56:09.630Z,24.22
2022-08-12T21:58:30.927Z,24.40
2022-08-12T22:00:35.183Z,24.38
2022-08-12T22:02:57.156Z,24.36
2022-08-12T22:05:17.155Z,24.30
2022-08-12T22:07:20.806Z,24.32
2022-08-12T22:09:26.627Z,24.31
2022-08-12T22:11:42.024Z,24.30
2022-08-12T22:14:02.275Z,23.52
2022-08-12T22:16:07.065Z,23.73
2022-08-12T22:18:09.431Z,23.49
2022-08-12T22:20:10.830Z,23.19
2022-08-12T22:22:12.475Z,22.99
2022-08-12T22:24:25.649Z,22.87
2022-08-12T22:26:29.134Z,22.78
2022-08-12T22:28:57.473Z,22.71
2022-08-12T22:31:11.219Z,22.68
2022-08-12T22:33:19.126Z,22.62
2022-08-12T22:35:47.390Z,22.57
2022-08-12T22:37:55.811Z,22.52
2022-08-12T22:39:57.319Z,22.49
2022-08-12T22:42:19.958Z,22.45
2022-08-12T22:44:54.134Z,22.41
2022-08-12T22:47:15.125Z,22.37
2022-08-12T22:49:53.100Z,22.39
2022-08-12T22:52:00.970Z,22.36
2022-08-12T22:54:04.635Z,22.32
2022-08-12T22:56:08.080Z,22.29
2022-08-12T22:58:09.730Z,22.27
2022-08-12T23:00:24.160Z,22.25
2022-08-12T23:02:28.726Z,22.25
2022-08-12T23:04:31.198Z,22.26
2022-08-12T23:06:36.975Z,22.23
2022-08-12T23:08:39.087Z,22.23
2022-08-12T23:10:40.386Z,22.22
2022-08-12T23:13:05.250Z,22.18
2022-08-12T23:15:06.718Z,22.12
2022-08-12T23:17:21.392Z,22.11
2022-08-12T23:19:38.458Z,22.07
2022-08-12T23:22:05.321Z,22.08
2022-08-12T23:24:11.884Z,22.06
2022-08-12T23:26:13.231Z,22.01
2022-08-12T23:28:33.675Z,21.99
2022-08-12T23:30:39.173Z,21.98
2022-08-12T23:32:40.587Z,21.95
2022-08-12T23:34:41.906Z,21.92
2022-08-12T23:36:51.446Z,21.90
2022-08-12T23:38:58.663Z,21.89
2022-08-12T23:41:03.501Z,21.86
2022-08-12T23:43:05.122Z,21.84
2022-08-12T23:45:08.971Z,21.78
2022-08-12T23:47:22.796Z,21.77
2022-08-12T23:49:58.079Z,21.86
2022-08-12T23:51:50.909Z,21.88
2022-08-12T23:53:55.080Z,21.80
2022-08-12T23:55:56.997Z,21.79
2022-08-12T23:58:20.959Z,21.87
